sensor_id;sensor_type;location;lat;lon;timestamp;P1;durP1;ratioP1;P2;durP2;ratioP2
9370;SDS011;4725;48.384;8.984;2023-02-28T05:02:35;3.33;;;2.40;;
9370;SDS011;4725;48.384;8.984;2023-02-28T05:05:02;2.90;;;2.30;;
9370;SDS011;4725;48.384;8.984;2023-02-28T05:07:29;4.07;;;2.67;;
9370;SDS011;4725;48.384;8.984;2023-02-28T05:09:56;5.23;;;2.43;;
9370;SDS011;4725;48.384;8.984;2023-02-28T05:12:23;3.43;;;1.83;;
9370;SDS011;4725;48.384;8.984;2023-02-28T05:14:50;3.80;;;2.67;;
9370;SDS011;4725;48.384;8.984;2023-02-28T05:17:16;4.30;;;2.73;;
9370;SDS011;4725;48.384;8.984;2023-02-28T05:19:45;3.40;;;2.10;;
9370;SDS011;4725;48.384;8.984;2023-02-28T05:22:13;4.03;;;2.33;;
9370;SDS011;4725;48.384;8.984;2023-02-28T05:24:41;2.83;;;2.00;;
9370;SDS011;4725;48.384;8.984;2023-02-28T05:27:08;3.33;;;2.60;;
9370;SDS011;4725;48.384;8.984;2023-02-28T05:29:35;3.83;;;2.60;;
9370;SDS011;4725;48.384;8.984;2023-02-28T05:32:07;4.57;;;2.63;;
9370;SDS011;4725;48.384;8.984;2023-02-28T05:34:35;4.20;;;2.40;;
9370;SDS011;4725;48.384;8.984;2023-02-28T05:37:04;5.73;;;2.73;;
9370;SDS011;4725;48.384;8.984;2023-02-28T05:39:31;4.63;;;2.70;;
9370;SDS011;4725;48.384;8.984;2023-02-28T05:41:59;3.90;;;3.20;;
9370;SDS011;4725;48.384;8.984;2023-02-28T05:44:26;4.03;;;2.83;;
9370;SDS011;4725;48.384;8.984;2023-02-28T05:46:52;2.73;;;2.40;;
9370;SDS011;4725;48.384;8.984;2023-02-28T05:49:19;3.87;;;2.60;;
9370;SDS011;4725;48.384;8.984;2023-02-28T05:51:46;5.10;;;2.73;;
9370;SDS011;4725;48.384;8.984;2023-02-28T05:54:14;4.03;;;2.87;;
9370;SDS011;4725;48.384;8.984;2023-02-28T05:56:41;2.90;;;2.47;;
9370;SDS011;4725;48.384;8.984;2023-02-28T05:59:10;4.60;;;2.97;;
9370;SDS011;4725;48.384;8.984;2023-02-28T06:01:38;4.57;;;2.53;;
9370;SDS011;4725;48.384;8.984;2023-02-28T06:04:08;4.37;;;2.70;;
9370;SDS011;4725;48.384;8.984;2023-02-28T06:06:36;3.13;;;2.30;;
9370;SDS011;4725;48.384;8.984;2023-02-28T06:09:04;8.43;;;3.17;;
9370;SDS011;4725;48.384;8.984;2023-02-28T06:11:33;3.60;;;2.70;;
9370;SDS011;4725;48.384;8.984;2023-02-28T06:14:00;3.33;;;2.47;;
9370;SDS011;4725;48.384;8.984;2023-02-28T06:16:28;4.57;;;3.07;;
9370;SDS011;4725;48.384;8.984;2023-02-28T06:18:56;3.53;;;2.87;;
9370;SDS011;4725;48.384;8.984;2023-02-28T06:21:24;3.87;;;2.80;;
9370;SDS011;4725;48.384;8.984;2023-02-28T06:23:52;4.20;;;3.20;;
9370;SDS011;4725;48.384;8.984;2023-02-28T06:26:19;3.73;;;2.73;;
9370;SDS011;4725;48.384;8.984;2023-02-28T06:28:48;6.23;;;3.20;;
9370;SDS011;4725;48.384;8.984;2023-02-28T06:31:16;4.00;;;2.90;;
9370;SDS011;4725;48.384;8.984;2023-02-28T06:33:44;5.43;;;2.60;;
9370;SDS011;4725;48.384;8.984;2023-02-28T06:36:12;5.77;;;2.70;;
9370;SDS011;4725;48.384;8.984;2023-02-28T06:38:40;4.73;;;3.00;;
9370;SDS011;4725;48.384;8.984;2023-02-28T06:41:08;3.37;;;2.93;;
9370;SDS011;4725;48.384;8.984;2023-02-28T06:43:36;6.13;;;3.37;;
9370;SDS011;4725;48.384;8.984;2023-02-28T06:46:07;4.13;;;3.20;;
9370;SDS011;4725;48.384;8.984;2023-02-28T06:48:36;4.90;;;3.00;;
9370;SDS011;4725;48.384;8.984;2023-02-28T06:51:04;5.70;;;3.30;;
9370;SDS011;4725;48.384;8.984;2023-02-28T06:53:32;5.20;;;4.00;;
9370;SDS011;4725;48.384;8.984;2023-02-28T06:56:02;4.70;;;3.30;;
9370;SDS011;4725;48.384;8.984;2023-02-28T06:58:31;4.27;;;3.20;;
9370;SDS011;4725;48.384;8.984;2023-02-28T07:39:48;6.70;;;3.60;;
9370;SDS011;4725;48.384;8.984;2023-02-28T07:42:16;4.53;;;3.30;;
9370;SDS011;4725;48.384;8.984;2023-02-28T07:44:43;6.17;;;4.47;;
9370;SDS011;4725;48.384;8.984;2023-02-28T07:47:10;8.70;;;4.27;;
9370;SDS011;4725;48.384;8.984;2023-02-28T07:49:37;5.80;;;4.20;;
9370;SDS011;4725;48.384;8.984;2023-02-28T07:52:05;7.40;;;4.30;;
9370;SDS011;4725;48.384;8.984;2023-02-28T07:54:32;8.37;;;4.60;;
9370;SDS011;4725;48.384;8.984;2023-02-28T07:57:01;5.47;;;3.40;;
9370;SDS011;4725;48.384;8.984;2023-02-28T07:59:28;9.67;;;4.87;;
9370;SDS011;4725;48.384;8.984;2023-02-28T08:01:56;5.93;;;4.53;;
9370;SDS011;4725;48.384;8.984;2023-02-28T08:04:24;4.90;;;4.30;;
9370;SDS011;4725;48.384;8.984;2023-02-28T08:06:51;10.90;;;4.93;;
9370;SDS011;4725;48.384;8.984;2023-02-28T08:09:18;5.53;;;4.10;;
9370;SDS011;4725;48.384;8.984;2023-02-28T08:11:45;5.40;;;4.50;;
9370;SDS011;4725;48.384;8.984;2023-02-28T08:14:13;6.97;;;4.73;;
9370;SDS011;4725;48.384;8.984;2023-02-28T08:16:40;4.70;;;4.00;;
9370;SDS011;4725;48.384;8.984;2023-02-28T08:19:07;6.67;;;4.17;;
9370;SDS011;4725;48.384;8.984;2023-02-28T08:21:34;5.90;;;4.63;;
9370;SDS011;4725;48.384;8.984;2023-02-28T08:24:01;5.23;;;4.27;;
9370;SDS011;4725;48.384;8.984;2023-02-28T08:26:28;6.00;;;5.40;;
9370;SDS011;4725;48.384;8.984;2023-02-28T08:28:55;5.00;;;4.10;;
9370;SDS011;4725;48.384;8.984;2023-02-28T08:31:24;6.87;;;4.53;;
9370;SDS011;4725;48.384;8.984;2023-02-28T08:33:50;5.10;;;4.40;;
9370;SDS011;4725;48.384;8.984;2023-02-28T08:36:20;5.73;;;4.03;;
9370;SDS011;4725;48.384;8.984;2023-02-28T08:38:46;5.67;;;4.70;;
9370;SDS011;4725;48.384;8.984;2023-02-28T08:41:13;5.63;;;4.20;;
9370;SDS011;4725;48.384;8.984;2023-02-28T08:43:40;5.13;;;4.43;;
9370;SDS011;4725;48.384;8.984;2023-02-28T08:46:08;5.43;;;4.37;;
9370;SDS011;4725;48.384;8.984;2023-02-28T08:48:39;6.07;;;4.90;;
9370;SDS011;4725;48.384;8.984;2023-02-28T08:51:08;5.90;;;4.27;;
9370;SDS011;4725;48.384;8.984;2023-02-28T08:53:36;6.00;;;4.20;;
9370;SDS011;4725;48.384;8.984;2023-02-28T08:56:06;5.07;;;4.40;;
9370;SDS011;4725;48.384;8.984;2023-02-28T08:58:35;4.27;;;3.83;;
9370;SDS011;4725;48.384;8.984;2023-02-28T09:01:07;6.37;;;4.53;;
9370;SDS011;4725;48.384;8.984;2023-02-28T09:03:35;6.70;;;4.30;;
9370;SDS011;4725;48.384;8.984;2023-02-28T09:06:04;5.73;;;4.60;;
9370;SDS011;4725;48.384;8.984;2023-02-28T09:08:31;6.80;;;4.73;;
9370;SDS011;4725;48.384;8.984;2023-02-28T09:10:58;5.20;;;4.20;;
9370;SDS011;4725;48.384;8.984;2023-02-28T09:13:27;6.23;;;4.80;;
9370;SDS011;4725;48.384;8.984;2023-02-28T09:15:56;4.77;;;4.13;;
9370;SDS011;4725;48.384;8.984;2023-02-28T09:18:24;6.13;;;4.53;;
9370;SDS011;4725;48.384;8.984;2023-02-28T09:20:51;4.60;;;4.13;;
9370;SDS011;4725;48.384;8.984;2023-02-28T09:23:19;6.13;;;4.60;;
9370;SDS011;4725;48.384;8.984;2023-02-28T09:25:47;6.03;;;4.17;;
9370;SDS011;4725;48.384;8.984;2023-02-28T09:28:15;4.93;;;4.10;;
9370;SDS011;4725;48.384;8.984;2023-02-28T09:30:44;5.53;;;4.73;;
9370;SDS011;4725;48.384;8.984;2023-02-28T09:33:12;5.17;;;4.20;;
9370;SDS011;4725;48.384;8.984;2023-02-28T09:35:40;5.73;;;4.03;;
9370;SDS011;4725;48.384;8.984;2023-02-28T09:38:08;6.53;;;4.50;;
9370;SDS011;4725;48.384;8.984;2023-02-28T09:40:37;4.77;;;4.10;;
9370;SDS011;4725;48.384;8.984;2023-02-28T09:43:09;6.03;;;4.80;;
9370;SDS011;4725;48.384;8.984;2023-02-28T09:45:40;7.07;;;5.00;;
9370;SDS011;4725;48.384;8.984;2023-02-28T09:48:10;6.63;;;5.47;;
9370;SDS011;4725;48.384;8.984;2023-02-28T09:50:41;5.23;;;4.57;;
9370;SDS011;4725;48.384;8.984;2023-02-28T09:53:13;5.63;;;4.67;;
9370;SDS011;4725;48.384;8.984;2023-02-28T09:55:48;6.67;;;4.83;;
9370;SDS011;4725;48.384;8.984;2023-02-28T09:58:18;5.37;;;4.40;;
9370;SDS011;4725;48.384;8.984;2023-02-28T10:00:54;6.47;;;4.80;;
9370;SDS011;4725;48.384;8.984;2023-02-28T10:03:25;5.03;;;4.40;;
9370;SDS011;4725;48.384;8.984;2023-02-28T10:05:57;7.13;;;5.03;;
9370;SDS011;4725;48.384;8.984;2023-02-28T10:08:29;6.77;;;4.73;;
9370;SDS011;4725;48.384;8.984;2023-02-28T10:11:01;6.03;;;4.33;;
9370;SDS011;4725;48.384;8.984;2023-02-28T10:13:33;5.77;;;4.43;;
9370;SDS011;4725;48.384;8.984;2023-02-28T10:16:03;6.93;;;4.80;;
9370;SDS011;4725;48.384;8.984;2023-02-28T10:18:38;7.60;;;5.63;;
9370;SDS011;4725;48.384;8.984;2023-02-28T10:21:10;7.90;;;5.00;;
9370;SDS011;4725;48.384;8.984;2023-02-28T10:23:46;7.10;;;4.90;;
9370;SDS011;4725;48.384;8.984;2023-02-28T10:26:17;9.57;;;5.17;;
9370;SDS011;4725;48.384;8.984;2023-02-28T10:28:44;7.80;;;4.50;;
9370;SDS011;4725;48.384;8.984;2023-02-28T10:31:11;7.30;;;4.60;;
9370;SDS011;4725;48.384;8.984;2023-02-28T10:33:42;6.60;;;4.77;;
9370;SDS011;4725;48.384;8.984;2023-02-28T10:36:10;6.80;;;4.70;;
9370;SDS011;4725;48.384;8.984;2023-02-28T10:38:42;8.37;;;5.80;;
9370;SDS011;4725;48.384;8.984;2023-02-28T10:41:10;6.57;;;5.10;;
9370;SDS011;4725;48.384;8.984;2023-02-28T10:43:41;4.77;;;4.37;;
9370;SDS011;4725;48.384;8.984;2023-02-28T10:46:11;7.67;;;4.73;;
9370;SDS011;4725;48.384;8.984;2023-02-28T10:48:57;5.00;;;4.50;;
9370;SDS011;4725;48.384;8.984;2023-02-28T10:51:33;6.17;;;4.73;;
9370;SDS011;4725;48.384;8.984;2023-02-28T10:54:02;5.33;;;4.83;;
9370;SDS011;4725;48.384;8.984;2023-02-28T10:56:30;6.80;;;4.67;;
9370;SDS011;4725;48.384;8.984;2023-02-28T10:58:59;6.37;;;5.07;;
9370;SDS011;4725;48.384;8.984;2023-02-28T11:01:38;5.90;;;5.00;;
9370;SDS011;4725;48.384;8.984;2023-02-28T11:04:16;7.33;;;4.80;;
9370;SDS011;4725;48.384;8.984;2023-02-28T11:06:46;5.33;;;4.83;;
9370;SDS011;4725;48.384;8.984;2023-02-28T11:09:23;6.07;;;4.60;;
9370;SDS011;4725;48.384;8.984;2023-02-28T11:11:55;18.27;;;5.53;;
9370;SDS011;4725;48.384;8.984;2023-02-28T11:14:24;6.50;;;5.17;;
9370;SDS011;4725;48.384;8.984;2023-02-28T11:16:52;5.90;;;4.10;;
9370;SDS011;4725;48.384;8.984;2023-02-28T11:19:22;6.30;;;4.87;;
9370;SDS011;4725;48.384;8.984;2023-02-28T11:21:53;5.00;;;4.50;;
9370;SDS011;4725;48.384;8.984;2023-02-28T11:24:23;7.53;;;5.67;;
9370;SDS011;4725;48.384;8.984;2023-02-28T11:26:52;7.80;;;6.13;;
9370;SDS011;4725;48.384;8.984;2023-02-28T11:29:21;7.53;;;5.53;;
9370;SDS011;4725;48.384;8.984;2023-02-28T11:34:59;6.03;;;4.83;;
9370;SDS011;4725;48.384;8.984;2023-02-28T11:37:28;5.60;;;4.63;;
9370;SDS011;4725;48.384;8.984;2023-02-28T11:39:56;6.30;;;5.13;;
9370;SDS011;4725;48.384;8.984;2023-02-28T11:42:27;6.93;;;5.00;;
9370;SDS011;4725;48.384;8.984;2023-02-28T11:45:11;5.47;;;4.20;;
9370;SDS011;4725;48.384;8.984;2023-02-28T11:47:47;14.60;;;5.77;;
9370;SDS011;4725;48.384;8.984;2023-02-28T11:50:27;6.77;;;5.07;;
9370;SDS011;4725;48.384;8.984;2023-02-28T11:53:11;7.73;;;5.10;;
9370;SDS011;4725;48.384;8.984;2023-02-28T11:55:44;5.57;;;4.63;;
9370;SDS011;4725;48.384;8.984;2023-02-28T11:58:19;6.37;;;4.87;;
9370;SDS011;4725;48.384;8.984;2023-02-28T12:01:01;6.97;;;4.97;;
9370;SDS011;4725;48.384;8.984;2023-02-28T12:03:39;6.83;;;5.03;;
9370;SDS011;4725;48.384;8.984;2023-02-28T12:06:14;5.80;;;5.07;;
9370;SDS011;4725;48.384;8.984;2023-02-28T12:08:53;5.17;;;4.67;;
9370;SDS011;4725;48.384;8.984;2023-02-28T12:11:40;5.87;;;5.17;;
9370;SDS011;4725;48.384;8.984;2023-02-28T12:14:26;17.47;;;8.03;;
9370;SDS011;4725;48.384;8.984;2023-02-28T12:17:16;10.93;;;8.47;;
9370;SDS011;4725;48.384;8.984;2023-02-28T12:19:55;8.10;;;6.93;;
9370;SDS011;4725;48.384;8.984;2023-02-28T12:22:28;8.10;;;6.03;;
9370;SDS011;4725;48.384;8.984;2023-02-28T12:28:01;5.57;;;5.00;;
9370;SDS011;4725;48.384;8.984;2023-02-28T12:30:29;5.97;;;5.20;;
9370;SDS011;4725;48.384;8.984;2023-02-28T12:33:01;6.23;;;5.20;;
9370;SDS011;4725;48.384;8.984;2023-02-28T12:35:34;6.00;;;5.07;;
9370;SDS011;4725;48.384;8.984;2023-02-28T12:38:08;8.83;;;5.20;;
9370;SDS011;4725;48.384;8.984;2023-02-28T12:40:43;10.67;;;5.63;;
9370;SDS011;4725;48.384;8.984;2023-02-28T12:43:15;6.07;;;4.80;;
9370;SDS011;4725;48.384;8.984;2023-02-28T12:45:44;7.60;;;4.33;;
9370;SDS011;4725;48.384;8.984;2023-02-28T12:48:15;5.83;;;4.57;;
9370;SDS011;4725;48.384;8.984;2023-02-28T12:50:49;5.90;;;4.93;;
9370;SDS011;4725;48.384;8.984;2023-02-28T12:53:18;5.53;;;5.00;;
9370;SDS011;4725;48.384;8.984;2023-02-28T12:55:53;8.97;;;5.80;;
9370;SDS011;4725;48.384;8.984;2023-02-28T12:58:26;6.63;;;5.73;;
9370;SDS011;4725;48.384;8.984;2023-02-28T13:01:14;5.43;;;4.90;;
9370;SDS011;4725;48.384;8.984;2023-02-28T13:04:01;9.15;;;5.15;;
9370;SDS011;4725;48.384;8.984;2023-02-28T13:07:04;5.50;;;4.63;;
9370;SDS011;4725;48.384;8.984;2023-02-28T13:09:50;5.95;;;5.35;;
9370;SDS011;4725;48.384;8.984;2023-02-28T13:12:18;6.97;;;5.53;;
9370;SDS011;4725;48.384;8.984;2023-02-28T13:14:47;8.90;;;6.20;;
9370;SDS011;4725;48.384;8.984;2023-02-28T13:17:17;6.03;;;5.43;;
9370;SDS011;4725;48.384;8.984;2023-02-28T13:19:46;6.60;;;5.63;;
9370;SDS011;4725;48.384;8.984;2023-02-28T13:22:37;6.35;;;5.50;;
9370;SDS011;4725;48.384;8.984;2023-02-28T13:31:32;5.45;;;4.95;;
9370;SDS011;4725;48.384;8.984;2023-02-28T13:34:27;6.07;;;4.97;;
9370;SDS011;4725;48.384;8.984;2023-02-28T13:37:01;6.20;;;5.60;;
9370;SDS011;4725;48.384;8.984;2023-02-28T13:40:01;8.82;;;5.85;;
9370;SDS011;4725;48.384;8.984;2023-02-28T13:42:52;6.80;;;5.72;;
9370;SDS011;4725;48.384;8.984;2023-02-28T13:45:20;6.75;;;6.05;;
9370;SDS011;4725;48.384;8.984;2023-02-28T13:47:52;6.20;;;5.18;;
9370;SDS011;4725;48.384;8.984;2023-02-28T13:50:21;5.80;;;5.25;;
9370;SDS011;4725;48.384;8.984;2023-02-28T13:52:56;6.93;;;6.10;;
9370;SDS011;4725;48.384;8.984;2023-02-28T13:55:34;8.47;;;7.13;;
9370;SDS011;4725;48.384;8.984;2023-02-28T13:58:09;6.93;;;5.73;;
9370;SDS011;4725;48.384;8.984;2023-02-28T14:00:54;9.43;;;7.00;;
9370;SDS011;4725;48.384;8.984;2023-02-28T14:03:41;7.50;;;5.87;;
9370;SDS011;4725;48.384;8.984;2023-02-28T14:06:22;9.23;;;5.85;;
9370;SDS011;4725;48.384;8.984;2023-02-28T14:08:55;7.30;;;6.20;;
9370;SDS011;4725;48.384;8.984;2023-02-28T14:11:30;11.48;;;5.55;;
9370;SDS011;4725;48.384;8.984;2023-02-28T14:13:59;7.90;;;5.65;;
9370;SDS011;4725;48.384;8.984;2023-02-28T14:16:27;9.48;;;5.95;;
9370;SDS011;4725;48.384;8.984;2023-02-28T14:19:03;8.30;;;5.65;;
9370;SDS011;4725;48.384;8.984;2023-02-28T14:21:38;8.40;;;5.88;;
9370;SDS011;4725;48.384;8.984;2023-02-28T14:24:17;7.15;;;5.60;;
9370;SDS011;4725;48.384;8.984;2023-02-28T14:29:59;6.13;;;5.53;;
9370;SDS011;4725;48.384;8.984;2023-02-28T14:32:47;6.88;;;5.65;;
9370;SDS011;4725;48.384;8.984;2023-02-28T14:35:22;7.03;;;6.07;;
9370;SDS011;4725;48.384;8.984;2023-02-28T14:38:17;6.38;;;5.75;;
9370;SDS011;4725;48.384;8.984;2023-02-28T14:40:47;6.88;;;5.43;;
9370;SDS011;4725;48.384;8.984;2023-02-28T14:43:22;6.63;;;5.80;;
9370;SDS011;4725;48.384;8.984;2023-02-28T14:45:51;6.53;;;5.93;;
9370;SDS011;4725;48.384;8.984;2023-02-28T14:48:21;7.85;;;5.78;;
9370;SDS011;4725;48.384;8.984;2023-02-28T14:50:51;7.03;;;5.78;;
9370;SDS011;4725;48.384;8.984;2023-02-28T14:53:21;6.28;;;5.65;;
9370;SDS011;4725;48.384;8.984;2023-02-28T14:55:51;6.50;;;5.90;;
9370;SDS011;4725;48.384;8.984;2023-02-28T14:58:25;9.35;;;6.07;;
9370;SDS011;4725;48.384;8.984;2023-02-28T15:00:53;8.25;;;5.90;;
9370;SDS011;4725;48.384;8.984;2023-02-28T15:03:22;6.32;;;5.65;;
9370;SDS011;4725;48.384;8.984;2023-02-28T15:05:51;7.15;;;6.45;;
9370;SDS011;4725;48.384;8.984;2023-02-28T15:08:19;5.75;;;5.25;;
9370;SDS011;4725;48.384;8.984;2023-02-28T15:10:50;7.97;;;5.50;;
9370;SDS011;4725;48.384;8.984;2023-02-28T15:13:19;6.05;;;5.47;;
9370;SDS011;4725;48.384;8.984;2023-02-28T15:15:50;7.10;;;4.80;;
9370;SDS011;4725;48.384;8.984;2023-02-28T15:18:22;5.93;;;5.10;;
9370;SDS011;4725;48.384;8.984;2023-02-28T15:20:54;6.78;;;6.00;;
9370;SDS011;4725;48.384;8.984;2023-02-28T15:23:23;9.13;;;5.55;;
9370;SDS011;4725;48.384;8.984;2023-02-28T15:25:50;6.65;;;5.57;;
9370;SDS011;4725;48.384;8.984;2023-02-28T15:28:19;7.82;;;5.63;;
9370;SDS011;4725;48.384;8.984;2023-02-28T15:30:54;5.80;;;5.28;;
9370;SDS011;4725;48.384;8.984;2023-02-28T15:33:24;6.75;;;6.00;;
9370;SDS011;4725;48.384;8.984;2023-02-28T15:36:02;8.20;;;5.57;;
9370;SDS011;4725;48.384;8.984;2023-02-28T15:38:33;6.97;;;5.85;;
9370;SDS011;4725;48.384;8.984;2023-02-28T15:41:01;6.43;;;5.80;;
9370;SDS011;4725;48.384;8.984;2023-02-28T15:43:33;7.82;;;6.00;;
9370;SDS011;4725;48.384;8.984;2023-02-28T15:46:03;6.80;;;6.00;;
9370;SDS011;4725;48.384;8.984;2023-02-28T15:48:33;10.85;;;6.07;;
9370;SDS011;4725;48.384;8.984;2023-02-28T15:51:06;6.20;;;5.60;;
9370;SDS011;4725;48.384;8.984;2023-02-28T15:53:35;7.30;;;5.77;;
9370;SDS011;4725;48.384;8.984;2023-02-28T15:56:06;5.70;;;5.17;;
9370;SDS011;4725;48.384;8.984;2023-02-28T15:58:47;7.37;;;6.20;;
9370;SDS011;4725;48.384;8.984;2023-02-28T16:01:21;7.87;;;6.60;;
9370;SDS011;4725;48.384;8.984;2023-02-28T16:03:51;8.97;;;5.80;;
9370;SDS011;4725;48.384;8.984;2023-02-28T16:09:08;8.13;;;5.83;;
9370;SDS011;4725;48.384;8.984;2023-02-28T16:11:38;8.73;;;6.63;;
9370;SDS011;4725;48.384;8.984;2023-02-28T16:14:12;9.20;;;6.73;;
9370;SDS011;4725;48.384;8.984;2023-02-28T16:16:46;7.20;;;5.80;;
9370;SDS011;4725;48.384;8.984;2023-02-28T16:19:15;9.20;;;5.90;;
9370;SDS011;4725;48.384;8.984;2023-02-28T16:21:42;7.03;;;5.50;;
9370;SDS011;4725;48.384;8.984;2023-02-28T16:24:10;6.93;;;5.03;;
9370;SDS011;4725;48.384;8.984;2023-02-28T16:26:38;9.50;;;5.47;;
9370;SDS011;4725;48.384;8.984;2023-02-28T16:29:07;10.30;;;5.17;;
9370;SDS011;4725;48.384;8.984;2023-02-28T16:31:37;6.07;;;4.90;;
9370;SDS011;4725;48.384;8.984;2023-02-28T16:34:09;11.27;;;6.73;;
9370;SDS011;4725;48.384;8.984;2023-02-28T16:36:37;8.10;;;6.00;;
9370;SDS011;4725;48.384;8.984;2023-02-28T16:39:06;8.73;;;5.83;;
9370;SDS011;4725;48.384;8.984;2023-02-28T16:41:33;7.87;;;5.27;;
9370;SDS011;4725;48.384;8.984;2023-02-28T16:44:00;7.43;;;5.33;;
9370;SDS011;4725;48.384;8.984;2023-02-28T16:46:30;6.43;;;5.53;;
9370;SDS011;4725;48.384;8.984;2023-02-28T16:49:00;6.87;;;5.60;;
9370;SDS011;4725;48.384;8.984;2023-02-28T16:51:29;8.50;;;6.23;;
9370;SDS011;4725;48.384;8.984;2023-02-28T16:53:56;7.70;;;5.73;;
9370;SDS011;4725;48.384;8.984;2023-02-28T16:56:23;6.07;;;5.47;;
9370;SDS011;4725;48.384;8.984;2023-02-28T16:58:51;5.90;;;5.10;;
9370;SDS011;4725;48.384;8.984;2023-02-28T17:01:21;6.63;;;5.30;;
9370;SDS011;4725;48.384;8.984;2023-02-28T17:03:48;10.57;;;6.17;;
9370;SDS011;4725;48.384;8.984;2023-02-28T17:06:17;7.40;;;6.33;;
9370;SDS011;4725;48.384;8.984;2023-02-28T17:08:48;9.80;;;6.10;;
9370;SDS011;4725;48.384;8.984;2023-02-28T17:11:16;7.23;;;5.43;;
9370;SDS011;4725;48.384;8.984;2023-02-28T17:13:43;7.30;;;5.30;;
9370;SDS011;4725;48.384;8.984;2023-02-28T17:16:17;9.77;;;6.00;;
9370;SDS011;4725;48.384;8.984;2023-02-28T17:18:49;6.93;;;5.47;;
9370;SDS011;4725;48.384;8.984;2023-02-28T17:21:17;6.67;;;5.53;;
9370;SDS011;4725;48.384;8.984;2023-02-28T17:23:44;9.37;;;5.63;;
9370;SDS011;4725;48.384;8.984;2023-02-28T17:26:14;6.33;;;5.50;;
9370;SDS011;4725;48.384;8.984;2023-02-28T17:28:42;5.83;;;5.20;;
9370;SDS011;4725;48.384;8.984;2023-02-28T17:31:10;8.30;;;5.37;;
9370;SDS011;4725;48.384;8.984;2023-02-28T17:33:37;9.33;;;4.90;;
9370;SDS011;4725;48.384;8.984;2023-02-28T17:36:04;6.80;;;5.30;;
9370;SDS011;4725;48.384;8.984;2023-02-28T17:38:33;8.27;;;5.13;;
9370;SDS011;4725;48.384;8.984;2023-02-28T17:41:01;7.33;;;5.60;;
9370;SDS011;4725;48.384;8.984;2023-02-28T17:43:29;8.00;;;5.23;;
9370;SDS011;4725;48.384;8.984;2023-02-28T17:45:57;6.93;;;5.13;;
9370;SDS011;4725;48.384;8.984;2023-02-28T17:48:24;8.33;;;6.10;;
9370;SDS011;4725;48.384;8.984;2023-02-28T17:50:51;8.03;;;6.40;;
9370;SDS011;4725;48.384;8.984;2023-02-28T17:53:19;7.73;;;6.03;;
9370;SDS011;4725;48.384;8.984;2023-02-28T17:55:48;10.90;;;6.80;;
9370;SDS011;4725;48.384;8.984;2023-02-28T17:58:15;9.53;;;7.60;;
9370;SDS011;4725;48.384;8.984;2023-02-28T18:00:44;12.43;;;8.13;;
9370;SDS011;4725;48.384;8.984;2023-02-28T18:03:13;13.40;;;9.40;;
9370;SDS011;4725;48.384;8.984;2023-02-28T18:05:41;9.10;;;6.83;;
9370;SDS011;4725;48.384;8.984;2023-02-28T18:08:15;9.67;;;7.30;;
9370;SDS011;4725;48.384;8.984;2023-02-28T18:10:43;8.77;;;6.47;;
9370;SDS011;4725;48.384;8.984;2023-02-28T18:13:10;10.47;;;7.43;;
9370;SDS011;4725;48.384;8.984;2023-02-28T18:15:37;10.07;;;7.17;;
9370;SDS011;4725;48.384;8.984;2023-02-28T18:18:06;11.13;;;6.83;;
9370;SDS011;4725;48.384;8.984;2023-02-28T18:20:34;7.33;;;6.30;;
9370;SDS011;4725;48.384;8.984;2023-02-28T18:23:02;8.90;;;6.17;;
9370;SDS011;4725;48.384;8.984;2023-02-28T18:25:29;9.70;;;6.77;;
9370;SDS011;4725;48.384;8.984;2023-02-28T18:27:56;12.07;;;6.83;;
9370;SDS011;4725;48.384;8.984;2023-02-28T18:30:25;9.23;;;6.93;;
9370;SDS011;4725;48.384;8.984;2023-02-28T18:32:55;9.07;;;7.40;;
9370;SDS011;4725;48.384;8.984;2023-02-28T18:35:24;12.97;;;8.80;;
9370;SDS011;4725;48.384;8.984;2023-02-28T18:38:04;11.73;;;8.50;;
9370;SDS011;4725;48.384;8.984;2023-02-28T18:40:33;12.17;;;8.13;;
9370;SDS011;4725;48.384;8.984;2023-02-28T18:43:01;14.67;;;8.67;;
9370;SDS011;4725;48.384;8.984;2023-02-28T18:45:28;12.90;;;8.20;;
9370;SDS011;4725;48.384;8.984;2023-02-28T18:47:55;12.07;;;8.10;;
9370;SDS011;4725;48.384;8.984;2023-02-28T18:50:23;14.57;;;9.03;;
9370;SDS011;4725;48.384;8.984;2023-02-28T18:52:50;10.90;;;8.20;;
9370;SDS011;4725;48.384;8.984;2023-02-28T18:55:18;12.77;;;8.33;;
9370;SDS011;4725;48.384;8.984;2023-02-28T18:57:45;15.77;;;11.00;;
9370;SDS011;4725;48.384;8.984;2023-02-28T19:00:13;15.90;;;10.00;;
9370;SDS011;4725;48.384;8.984;2023-02-28T19:02:43;10.43;;;8.00;;
9370;SDS011;4725;48.384;8.984;2023-02-28T19:05:11;14.30;;;8.80;;
9370;SDS011;4725;48.384;8.984;2023-02-28T19:07:39;12.90;;;8.63;;
9370;SDS011;4725;48.384;8.984;2023-02-28T19:10:08;12.33;;;8.60;;
9370;SDS011;4725;48.384;8.984;2023-02-28T19:12:37;9.60;;;7.13;;
9370;SDS011;4725;48.384;8.984;2023-02-28T19:15:06;11.53;;;8.47;;
9370;SDS011;4725;48.384;8.984;2023-02-28T19:17:34;16.67;;;9.97;;
9370;SDS011;4725;48.384;8.984;2023-02-28T19:20:02;15.63;;;9.97;;
9370;SDS011;4725;48.384;8.984;2023-02-28T19:22:30;16.93;;;11.17;;
9370;SDS011;4725;48.384;8.984;2023-02-28T19:24:59;17.40;;;10.53;;
9370;SDS011;4725;48.384;8.984;2023-02-28T19:27:27;8.83;;;7.33;;
9370;SDS011;4725;48.384;8.984;2023-02-28T19:29:55;11.17;;;8.37;;
9370;SDS011;4725;48.384;8.984;2023-02-28T19:32:23;12.33;;;8.13;;
9370;SDS011;4725;48.384;8.984;2023-02-28T19:34:51;11.77;;;7.87;;
9370;SDS011;4725;48.384;8.984;2023-02-28T19:37:19;9.43;;;6.77;;
9370;SDS011;4725;48.384;8.984;2023-02-28T19:39:46;9.43;;;7.83;;
9370;SDS011;4725;48.384;8.984;2023-02-28T19:42:16;10.67;;;8.07;;
9370;SDS011;4725;48.384;8.984;2023-02-28T19:44:44;8.67;;;6.90;;
9370;SDS011;4725;48.384;8.984;2023-02-28T19:47:11;9.97;;;7.83;;
9370;SDS011;4725;48.384;8.984;2023-02-28T19:49:38;10.87;;;7.67;;
9370;SDS011;4725;48.384;8.984;2023-02-28T19:52:06;8.67;;;7.53;;
9370;SDS011;4725;48.384;8.984;2023-02-28T19:54:33;10.60;;;8.17;;
9370;SDS011;4725;48.384;8.984;2023-02-28T19:57:00;12.20;;;8.40;;
9370;SDS011;4725;48.384;8.984;2023-02-28T19:59:28;10.73;;;8.23;;
9370;SDS011;4725;48.384;8.984;2023-02-28T20:01:55;11.43;;;8.07;;
9370;SDS011;4725;48.384;8.984;2023-02-28T20:04:23;10.60;;;8.00;;
9370;SDS011;4725;48.384;8.984;2023-02-28T20:06:52;10.67;;;7.37;;
9370;SDS011;4725;48.384;8.984;2023-02-28T20:09:19;10.17;;;7.80;;
9370;SDS011;4725;48.384;8.984;2023-02-28T20:11:46;9.83;;;7.90;;
9370;SDS011;4725;48.384;8.984;2023-02-28T20:14:14;11.50;;;8.70;;
9370;SDS011;4725;48.384;8.984;2023-02-28T20:16:43;13.10;;;10.10;;
9370;SDS011;4725;48.384;8.984;2023-02-28T20:19:10;11.80;;;8.00;;
9370;SDS011;4725;48.384;8.984;2023-02-28T20:21:37;12.00;;;8.33;;
9370;SDS011;4725;48.384;8.984;2023-02-28T20:24:05;15.27;;;9.97;;
9370;SDS011;4725;48.384;8.984;2023-02-28T20:26:32;12.27;;;9.17;;
9370;SDS011;4725;48.384;8.984;2023-02-28T20:28:59;10.97;;;8.07;;
9370;SDS011;4725;48.384;8.984;2023-02-28T20:31:27;11.93;;;8.67;;
9370;SDS011;4725;48.384;8.984;2023-02-28T20:33:56;13.33;;;9.23;;
9370;SDS011;4725;48.384;8.984;2023-02-28T20:36:23;11.93;;;8.27;;
9370;SDS011;4725;48.384;8.984;2023-02-28T20:38:50;12.40;;;8.83;;
9370;SDS011;4725;48.384;8.984;2023-02-28T20:41:18;12.80;;;9.10;;
9370;SDS011;4725;48.384;8.984;2023-02-28T20:43:46;21.03;;;15.73;;
9370;SDS011;4725;48.384;8.984;2023-02-28T20:46:17;16.60;;;11.37;;
9370;SDS011;4725;48.384;8.984;2023-02-28T20:48:44;15.33;;;10.83;;
9370;SDS011;4725;48.384;8.984;2023-02-28T20:51:12;18.27;;;11.63;;
9370;SDS011;4725;48.384;8.984;2023-02-28T20:53:41;17.47;;;11.00;;
9370;SDS011;4725;48.384;8.984;2023-02-28T20:56:09;23.10;;;11.03;;
9370;SDS011;4725;48.384;8.984;2023-02-28T20:58:38;14.97;;;9.60;;
9370;SDS011;4725;48.384;8.984;2023-02-28T21:01:06;13.23;;;10.07;;
9370;SDS011;4725;48.384;8.984;2023-02-28T21:03:36;13.37;;;9.70;;
9370;SDS011;4725;48.384;8.984;2023-02-28T21:06:04;12.27;;;9.30;;
9370;SDS011;4725;48.384;8.984;2023-02-28T21:08:33;14.77;;;10.13;;
9370;SDS011;4725;48.384;8.984;2023-02-28T21:11:05;14.63;;;9.60;;
9370;SDS011;4725;48.384;8.984;2023-02-28T21:13:32;14.60;;;9.17;;
9370;SDS011;4725;48.384;8.984;2023-02-28T21:16:01;15.70;;;10.30;;
9370;SDS011;4725;48.384;8.984;2023-02-28T21:18:29;12.37;;;9.23;;
9370;SDS011;4725;48.384;8.984;2023-02-28T21:20:59;12.97;;;8.80;;
9370;SDS011;4725;48.384;8.984;2023-02-28T21:23:26;14.93;;;10.10;;
9370;SDS011;4725;48.384;8.984;2023-02-28T21:25:54;13.23;;;10.07;;
9370;SDS011;4725;48.384;8.984;2023-02-28T21:28:26;16.43;;;8.83;;
9370;SDS011;4725;48.384;8.984;2023-02-28T21:30:53;13.70;;;10.07;;